sensor_id;sensor_type;location;lat;lon;timestamp;temperature;humidity
37786;DHT22;23625;48.784;9.336;2023-01-30T00:00:54;-2.30;99.90
37786;DHT22;23625;48.784;9.336;2023-01-30T00:03:21;-2.50;99.90
37786;DHT22;23625;48.784;9.336;2023-01-30T00:05:47;-2.40;99.90
37786;DHT22;23625;48.784;9.336;2023-01-30T00:08:13;-2.50;99.90
37786;DHT22;23625;48.784;9.336;2023-01-30T00:10:39;-2.60;99.90
37786;DHT22;23625;48.784;9.336;2023-01-30T00:13:04;-2.50;99.90
37786;DHT22;23625;48.784;9.336;2023-01-30T00:15:30;-2.60;99.90
37786;DHT22;23625;48.784;9.336;2023-01-30T00:17:56;-2.60;99.90
37786;DHT22;23625;48.784;9.336;2023-01-30T00:20:21;-2.60;99.90
37786;DHT22;23625;48.784;9.336;2023-01-30T00:22:47;-2.60;99.90
37786;DHT22;23625;48.784;9.336;2023-01-30T00:25:12;-2.50;99.90
37786;DHT22;23625;48.784;9.336;2023-01-30T00:27:38;-2.50;99.90
37786;DHT22;23625;48.784;9.336;2023-01-30T00:30:04;-2.50;99.90
37786;DHT22;23625;48.784;9.336;2023-01-30T00:32:31;-2.40;99.90
37786;DHT22;23625;48.784;9.336;2023-01-30T00:34:57;-2.30;99.90
37786;DHT22;23625;48.784;9.336;2023-01-30T00:37:22;-2.40;99.90
37786;DHT22;23625;48.784;9.336;2023-01-30T00:39:48;-2.30;99.90
37786;DHT22;23625;48.784;9.336;2023-01-30T00:42:14;-2.40;99.90
37786;DHT22;23625;48.784;9.336;2023-01-30T00:44:58;-2.40;99.90
37786;DHT22;23625;48.784;9.336;2023-01-30T00:47:42;-2.30;99.90
37786;DHT22;23625;48.784;9.336;2023-01-30T00:50:08;-2.30;99.90
37786;DHT22;23625;48.784;9.336;2023-01-30T00:52:34;-2.30;99.90
37786;DHT22;23625;48.784;9.336;2023-01-30T00:55:00;-2.30;99.90
37786;DHT22;23625;48.784;9.336;2023-01-30T00:57:25;-2.30;99.90
37786;DHT22;23625;48.784;9.336;2023-01-30T00:59:51;-2.20;99.90
37786;DHT22;23625;48.784;9.336;2023-01-30T01:02:16;-2.20;99.90
37786;DHT22;23625;48.784;9.336;2023-01-30T01:04:42;-2.20;99.90
37786;DHT22;23625;48.784;9.336;2023-01-30T01:07:11;-2.30;99.90
37786;DHT22;23625;48.784;9.336;2023-01-30T01:09:37;-2.40;99.90
37786;DHT22;23625;48.784;9.336;2023-01-30T01:12:03;-2.40;99.90
37786;DHT22;23625;48.784;9.336;2023-01-30T01:14:30;-2.50;99.90
37786;DHT22;23625;48.784;9.336;2023-01-30T01:16:55;-2.50;99.90
37786;DHT22;23625;48.784;9.336;2023-01-30T01:19:21;-2.50;99.90
37786;DHT22;23625;48.784;9.336;2023-01-30T01:21:47;-2.60;99.90
37786;DHT22;23625;48.784;9.336;2023-01-30T01:24:14;-2.70;99.90
37786;DHT22;23625;48.784;9.336;2023-01-30T01:26:40;-2.80;99.90
37786;DHT22;23625;48.784;9.336;2023-01-30T01:29:06;-2.80;99.90
37786;DHT22;23625;48.784;9.336;2023-01-30T01:31:32;-2.70;99.90
37786;DHT22;23625;48.784;9.336;2023-01-30T01:33:57;-2.80;99.90
37786;DHT22;23625;48.784;9.336;2023-01-30T01:36:23;-2.90;99.90
37786;DHT22;23625;48.784;9.336;2023-01-30T01:38:48;-2.90;99.90
37786;DHT22;23625;48.784;9.336;2023-01-30T01:41:16;-3.00;99.90
37786;DHT22;23625;48.784;9.336;2023-01-30T01:44:07;-3.00;99.90
37786;DHT22;23625;48.784;9.336;2023-01-30T01:46:44;-2.90;99.90
37786;DHT22;23625;48.784;9.336;2023-01-30T01:49:21;-3.00;99.90
37786;DHT22;23625;48.784;9.336;2023-01-30T01:51:57;-3.10;99.90
37786;DHT22;23625;48.784;9.336;2023-01-30T01:55:16;-3.00;99.90
37786;DHT22;23625;48.784;9.336;2023-01-30T01:57:40;-2.90;99.90
37786;DHT22;23625;48.784;9.336;2023-01-30T02:02:43;-3.00;99.90
37786;DHT22;23625;48.784;9.336;2023-01-30T02:05:11;-3.00;99.90
37786;DHT22;23625;48.784;9.336;2023-01-30T02:13:02;-2.90;99.90
37786;DHT22;23625;48.784;9.336;2023-01-30T02:15:28;-2.90;99.90
37786;DHT22;23625;48.784;9.336;2023-01-30T02:17:53;-2.90;99.90
37786;DHT22;23625;48.784;9.336;2023-01-30T02:20:56;-3.00;99.90
37786;DHT22;23625;48.784;9.336;2023-01-30T02:26:06;-2.90;99.90
37786;DHT22;23625;48.784;9.336;2023-01-30T02:37:21;-2.80;99.90
37786;DHT22;23625;48.784;9.336;2023-01-30T02:39:59;-2.90;99.90
37786;DHT22;23625;48.784;9.336;2023-01-30T02:42:31;-2.80;99.90
37786;DHT22;23625;48.784;9.336;2023-01-30T02:45:21;-2.70;99.90
37786;DHT22;23625;48.784;9.336;2023-01-30T02:48:01;-2.70;99.90
37786;DHT22;23625;48.784;9.336;2023-01-30T02:50:35;-2.70;99.90
37786;DHT22;23625;48.784;9.336;2023-01-30T02:53:04;-2.80;99.90
37786;DHT22;23625;48.784;9.336;2023-01-30T02:55:30;-2.80;99.90
37786;DHT22;23625;48.784;9.336;2023-01-30T02:57:56;-2.90;99.90
37786;DHT22;23625;48.784;9.336;2023-01-30T03:00:36;-2.60;99.90
37786;DHT22;23625;48.784;9.336;2023-01-30T03:09:05;-2.70;99.90
37786;DHT22;23625;48.784;9.336;2023-01-30T03:14:31;-2.70;99.90
37786;DHT22;23625;48.784;9.336;2023-01-30T03:16:59;-2.60;99.90
37786;DHT22;23625;48.784;9.336;2023-01-30T03:19:26;-2.50;99.90
37786;DHT22;23625;48.784;9.336;2023-01-30T03:21:53;-2.40;99.90
37786;DHT22;23625;48.784;9.336;2023-01-30T03:24:19;-2.30;99.90
37786;DHT22;23625;48.784;9.336;2023-01-30T03:26:53;-2.20;99.90
37786;DHT22;23625;48.784;9.336;2023-01-30T03:29:20;-2.10;99.90
37786;DHT22;23625;48.784;9.336;2023-01-30T03:31:45;-2.00;99.90
37786;DHT22;23625;48.784;9.336;2023-01-30T03:34:11;-2.00;99.90
37786;DHT22;23625;48.784;9.336;2023-01-30T03:36:37;-1.90;99.90
37786;DHT22;23625;48.784;9.336;2023-01-30T03:39:02;-1.70;99.90
37786;DHT22;23625;48.784;9.336;2023-01-30T03:41:28;-1.60;99.90
37786;DHT22;23625;48.784;9.336;2023-01-30T03:43:54;-1.50;99.90
37786;DHT22;23625;48.784;9.336;2023-01-30T03:46:19;-1.50;99.90
37786;DHT22;23625;48.784;9.336;2023-01-30T03:48:45;-1.40;99.90
37786;DHT22;23625;48.784;9.336;2023-01-30T03:51:11;-1.30;99.90
37786;DHT22;23625;48.784;9.336;2023-01-30T03:53:36;-1.20;99.90
37786;DHT22;23625;48.784;9.336;2023-01-30T03:56:02;-1.10;99.90
37786;DHT22;23625;48.784;9.336;2023-01-30T03:58:27;-1.10;99.90
37786;DHT22;23625;48.784;9.336;2023-01-30T04:00:55;-1.10;99.90
37786;DHT22;23625;48.784;9.336;2023-01-30T04:03:22;-1.00;99.90
37786;DHT22;23625;48.784;9.336;2023-01-30T04:05:47;-0.80;99.90
37786;DHT22;23625;48.784;9.336;2023-01-30T04:08:13;-0.70;99.90
37786;DHT22;23625;48.784;9.336;2023-01-30T04:10:38;-0.60;99.90
37786;DHT22;23625;48.784;9.336;2023-01-30T04:13:04;-0.60;99.90
37786;DHT22;23625;48.784;9.336;2023-01-30T04:15:30;-0.50;99.90
37786;DHT22;23625;48.784;9.336;2023-01-30T04:17:56;-0.50;99.90
37786;DHT22;23625;48.784;9.336;2023-01-30T04:20:21;-0.40;99.90
37786;DHT22;23625;48.784;9.336;2023-01-30T04:22:47;-0.40;99.90
37786;DHT22;23625;48.784;9.336;2023-01-30T04:25:12;-0.40;99.90
37786;DHT22;23625;48.784;9.336;2023-01-30T04:27:38;-0.40;99.90
37786;DHT22;23625;48.784;9.336;2023-01-30T04:30:04;-0.30;99.90
37786;DHT22;23625;48.784;9.336;2023-01-30T04:32:30;-0.30;99.90
37786;DHT22;23625;48.784;9.336;2023-01-30T04:34:55;-0.30;99.90
37786;DHT22;23625;48.784;9.336;2023-01-30T04:37:21;-0.30;99.90
37786;DHT22;23625;48.784;9.336;2023-01-30T04:39:46;-0.20;99.90
37786;DHT22;23625;48.784;9.336;2023-01-30T04:42:12;-0.20;99.90
37786;DHT22;23625;48.784;9.336;2023-01-30T04:44:38;-0.20;99.90
37786;DHT22;23625;48.784;9.336;2023-01-30T04:47:03;-0.20;99.90
37786;DHT22;23625;48.784;9.336;2023-01-30T04:49:29;-0.20;99.90
37786;DHT22;23625;48.784;9.336;2023-01-30T04:51:54;-0.20;99.90
37786;DHT22;23625;48.784;9.336;2023-01-30T04:54:20;-0.20;99.90
37786;DHT22;23625;48.784;9.336;2023-01-30T04:56:45;-0.20;99.90
37786;DHT22;23625;48.784;9.336;2023-01-30T04:59:11;-0.20;99.90
37786;DHT22;23625;48.784;9.336;2023-01-30T05:01:37;-0.20;99.90
37786;DHT22;23625;48.784;9.336;2023-01-30T05:04:04;-0.20;99.90
37786;DHT22;23625;48.784;9.336;2023-01-30T05:06:31;-0.10;99.90
37786;DHT22;23625;48.784;9.336;2023-01-30T05:08:57;-0.10;99.90
37786;DHT22;23625;48.784;9.336;2023-01-30T05:11:25;-0.10;99.90
37786;DHT22;23625;48.784;9.336;2023-01-30T05:13:51;-0.10;99.90
37786;DHT22;23625;48.784;9.336;2023-01-30T05:16:18;0.00;99.90
37786;DHT22;23625;48.784;9.336;2023-01-30T05:18:44;0.00;99.90
37786;DHT22;23625;48.784;9.336;2023-01-30T05:21:18;0.00;99.90
37786;DHT22;23625;48.784;9.336;2023-01-30T05:23:44;0.00;99.90
37786;DHT22;23625;48.784;9.336;2023-01-30T05:26:11;0.00;99.90
37786;DHT22;23625;48.784;9.336;2023-01-30T05:28:37;0.00;99.90
37786;DHT22;23625;48.784;9.336;2023-01-30T05:31:04;0.10;99.90
37786;DHT22;23625;48.784;9.336;2023-01-30T05:33:30;0.20;99.90
37786;DHT22;23625;48.784;9.336;2023-01-30T05:35:56;0.20;99.90
37786;DHT22;23625;48.784;9.336;2023-01-30T05:38:23;0.20;99.90
37786;DHT22;23625;48.784;9.336;2023-01-30T05:43:24;0.20;99.90
37786;DHT22;23625;48.784;9.336;2023-01-30T05:45:54;0.20;99.90
37786;DHT22;23625;48.784;9.336;2023-01-30T05:48:21;0.30;99.90
37786;DHT22;23625;48.784;9.336;2023-01-30T05:50:52;0.30;99.90
37786;DHT22;23625;48.784;9.336;2023-01-30T05:53:19;0.30;99.90
37786;DHT22;23625;48.784;9.336;2023-01-30T05:55:45;0.30;99.90
37786;DHT22;23625;48.784;9.336;2023-01-30T05:58:10;0.40;99.90
37786;DHT22;23625;48.784;9.336;2023-01-30T06:00:36;0.40;99.90
37786;DHT22;23625;48.784;9.336;2023-01-30T06:03:02;0.40;99.90
37786;DHT22;23625;48.784;9.336;2023-01-30T06:05:28;0.40;99.90
37786;DHT22;23625;48.784;9.336;2023-01-30T06:07:53;0.40;99.90
37786;DHT22;23625;48.784;9.336;2023-01-30T06:10:19;0.40;99.90
37786;DHT22;23625;48.784;9.336;2023-01-30T06:12:45;0.40;99.90
37786;DHT22;23625;48.784;9.336;2023-01-30T06:15:11;0.40;99.90
37786;DHT22;23625;48.784;9.336;2023-01-30T06:17:36;0.40;99.90
37786;DHT22;23625;48.784;9.336;2023-01-30T06:20:06;0.40;99.90
37786;DHT22;23625;48.784;9.336;2023-01-30T06:22:32;0.50;99.90
37786;DHT22;23625;48.784;9.336;2023-01-30T06:24:57;0.50;99.90
37786;DHT22;23625;48.784;9.336;2023-01-30T06:27:23;0.50;99.90
37786;DHT22;23625;48.784;9.336;2023-01-30T06:29:48;0.50;99.90
37786;DHT22;23625;48.784;9.336;2023-01-30T06:32:14;0.50;99.90
37786;DHT22;23625;48.784;9.336;2023-01-30T06:34:39;0.50;99.90
37786;DHT22;23625;48.784;9.336;2023-01-30T06:37:05;0.40;99.90
37786;DHT22;23625;48.784;9.336;2023-01-30T06:39:30;0.40;99.90
37786;DHT22;23625;48.784;9.336;2023-01-30T06:41:56;0.40;99.90
37786;DHT22;23625;48.784;9.336;2023-01-30T06:44:22;0.40;99.90
37786;DHT22;23625;48.784;9.336;2023-01-30T06:46:47;0.40;99.90
37786;DHT22;23625;48.784;9.336;2023-01-30T06:49:13;0.40;99.90
37786;DHT22;23625;48.784;9.336;2023-01-30T06:51:38;0.40;99.90
37786;DHT22;23625;48.784;9.336;2023-01-30T06:54:04;0.50;99.90
37786;DHT22;23625;48.784;9.336;2023-01-30T06:56:29;0.50;99.90
37786;DHT22;23625;48.784;9.336;2023-01-30T06:58:55;0.50;99.90
37786;DHT22;23625;48.784;9.336;2023-01-30T07:01:21;0.50;99.90
37786;DHT22;23625;48.784;9.336;2023-01-30T07:03:46;0.50;99.90
37786;DHT22;23625;48.784;9.336;2023-01-30T07:06:13;0.50;99.90
37786;DHT22;23625;48.784;9.336;2023-01-30T07:08:38;0.60;99.90
37786;DHT22;23625;48.784;9.336;2023-01-30T07:11:05;0.60;99.90
37786;DHT22;23625;48.784;9.336;2023-01-30T07:13:31;0.60;99.90
37786;DHT22;23625;48.784;9.336;2023-01-30T07:15:56;0.60;99.90
37786;DHT22;23625;48.784;9.336;2023-01-30T07:18:22;0.60;99.90
37786;DHT22;23625;48.784;9.336;2023-01-30T07:20:48;0.60;99.90
37786;DHT22;23625;48.784;9.336;2023-01-30T07:23:14;0.60;99.90
37786;DHT22;23625;48.784;9.336;2023-01-30T07:25:40;0.60;99.90
37786;DHT22;23625;48.784;9.336;2023-01-30T07:28:05;0.70;99.90
37786;DHT22;23625;48.784;9.336;2023-01-30T07:30:32;0.70;99.90
37786;DHT22;23625;48.784;9.336;2023-01-30T07:33:00;0.70;99.90
37786;DHT22;23625;48.784;9.336;2023-01-30T07:35:31;0.70;99.90
37786;DHT22;23625;48.784;9.336;2023-01-30T07:37:58;0.80;99.90
37786;DHT22;23625;48.784;9.336;2023-01-30T07:40:24;0.70;99.90
37786;DHT22;23625;48.784;9.336;2023-01-30T07:42:58;0.70;99.90
37786;DHT22;23625;48.784;9.336;2023-01-30T07:45:25;0.80;99.90
37786;DHT22;23625;48.784;9.336;2023-01-30T07:47:52;0.80;99.90
37786;DHT22;23625;48.784;9.336;2023-01-30T07:50:18;0.90;99.90
37786;DHT22;23625;48.784;9.336;2023-01-30T07:52:47;0.80;99.90
37786;DHT22;23625;48.784;9.336;2023-01-30T07:55:12;0.80;99.90
37786;DHT22;23625;48.784;9.336;2023-01-30T07:57:38;0.80;99.90
37786;DHT22;23625;48.784;9.336;2023-01-30T08:00:04;0.90;99.90
37786;DHT22;23625;48.784;9.336;2023-01-30T08:02:30;0.90;99.90
37786;DHT22;23625;48.784;9.336;2023-01-30T08:04:55;0.80;99.90
37786;DHT22;23625;48.784;9.336;2023-01-30T08:07:21;0.80;99.90
37786;DHT22;23625;48.784;9.336;2023-01-30T08:09:46;0.90;99.90
37786;DHT22;23625;48.784;9.336;2023-01-30T08:12:12;0.90;99.90
37786;DHT22;23625;48.784;9.336;2023-01-30T08:14:38;0.90;99.90
37786;DHT22;23625;48.784;9.336;2023-01-30T08:17:03;0.90;99.90
37786;DHT22;23625;48.784;9.336;2023-01-30T08:19:29;0.90;99.90
37786;DHT22;23625;48.784;9.336;2023-01-30T08:21:54;0.90;99.90
37786;DHT22;23625;48.784;9.336;2023-01-30T08:24:20;0.90;99.90
37786;DHT22;23625;48.784;9.336;2023-01-30T08:26:48;1.00;99.90
37786;DHT22;23625;48.784;9.336;2023-01-30T08:29:14;0.90;99.90
37786;DHT22;23625;48.784;9.336;2023-01-30T08:31:39;0.90;99.90
37786;DHT22;23625;48.784;9.336;2023-01-30T08:34:05;0.90;99.90
37786;DHT22;23625;48.784;9.336;2023-01-30T08:36:30;0.90;99.90
37786;DHT22;23625;48.784;9.336;2023-01-30T08:38:57;0.80;99.90
37786;DHT22;23625;48.784;9.336;2023-01-30T08:41:22;0.80;99.90
37786;DHT22;23625;48.784;9.336;2023-01-30T08:43:48;0.90;99.90
37786;DHT22;23625;48.784;9.336;2023-01-30T08:46:13;0.80;99.90
37786;DHT22;23625;48.784;9.336;2023-01-30T08:48:39;0.90;99.90
37786;DHT22;23625;48.784;9.336;2023-01-30T08:51:07;1.10;99.90
37786;DHT22;23625;48.784;9.336;2023-01-30T08:53:33;1.10;99.90
37786;DHT22;23625;48.784;9.336;2023-01-30T08:55:58;1.20;99.90
37786;DHT22;23625;48.784;9.336;2023-01-30T08:58:24;1.20;99.90
37786;DHT22;23625;48.784;9.336;2023-01-30T09:00:49;1.30;99.90
37786;DHT22;23625;48.784;9.336;2023-01-30T09:03:15;1.40;99.90
37786;DHT22;23625;48.784;9.336;2023-01-30T09:05:42;1.50;99.90
37786;DHT22;23625;48.784;9.336;2023-01-30T09:08:08;1.70;99.90
37786;DHT22;23625;48.784;9.336;2023-01-30T09:10:34;1.80;99.90
37786;DHT22;23625;48.784;9.336;2023-01-30T09:12:59;1.90;99.90
37786;DHT22;23625;48.784;9.336;2023-01-30T09:15:25;2.20;99.90
37786;DHT22;23625;48.784;9.336;2023-01-30T09:17:51;2.30;99.90
37786;DHT22;23625;48.784;9.336;2023-01-30T09:20:17;2.30;99.90
37786;DHT22;23625;48.784;9.336;2023-01-30T09:22:45;2.30;99.90
37786;DHT22;23625;48.784;9.336;2023-01-30T09:25:11;2.40;99.90
37786;DHT22;23625;48.784;9.336;2023-01-30T09:27:36;2.30;99.90
37786;DHT22;23625;48.784;9.336;2023-01-30T09:30:04;2.40;99.90
37786;DHT22;23625;48.784;9.336;2023-01-30T09:32:30;2.30;99.90
37786;DHT22;23625;48.784;9.336;2023-01-30T09:34:55;2.20;99.90
37786;DHT22;23625;48.784;9.336;2023-01-30T09:37:21;2.20;99.90
37786;DHT22;23625;48.784;9.336;2023-01-30T09:39:46;2.10;99.90
37786;DHT22;23625;48.784;9.336;2023-01-30T09:55:40;2.30;99.90
37786;DHT22;23625;48.784;9.336;2023-01-30T09:58:19;2.40;99.90
37786;DHT22;23625;48.784;9.336;2023-01-30T10:00:47;2.40;99.90
37786;DHT22;23625;48.784;9.336;2023-01-30T10:03:27;2.40;99.90
37786;DHT22;23625;48.784;9.336;2023-01-30T10:06:13;2.50;99.90
37786;DHT22;23625;48.784;9.336;2023-01-30T10:08:47;2.50;99.90
37786;DHT22;23625;48.784;9.336;2023-01-30T10:14:06;2.70;99.90
37786;DHT22;23625;48.784;9.336;2023-01-30T10:17:03;2.80;99.90
37786;DHT22;23625;48.784;9.336;2023-01-30T10:28:30;3.10;99.90
37786;DHT22;23625;48.784;9.336;2023-01-30T10:31:04;3.20;99.90
37786;DHT22;23625;48.784;9.336;2023-01-30T10:33:36;3.20;99.90
37786;DHT22;23625;48.784;9.336;2023-01-30T10:36:12;3.30;99.90
37786;DHT22;23625;48.784;9.336;2023-01-30T10:38:46;3.40;99.90
37786;DHT22;23625;48.784;9.336;2023-01-30T10:41:19;3.40;99.90
37786;DHT22;23625;48.784;9.336;2023-01-30T10:43:54;3.50;99.90
37786;DHT22;23625;48.784;9.336;2023-01-30T10:46:38;3.50;99.90
37786;DHT22;23625;48.784;9.336;2023-01-30T10:49:41;3.60;99.90
37786;DHT22;23625;48.784;9.336;2023-01-30T10:52:34;3.80;99.90
37786;DHT22;23625;48.784;9.336;2023-01-30T11:00:42;3.90;99.90
37786;DHT22;23625;48.784;9.336;2023-01-30T11:05:50;3.90;99.90
37786;DHT22;23625;48.784;9.336;2023-01-30T11:08:26;3.90;99.90
37786;DHT22;23625;48.784;9.336;2023-01-30T11:10:53;4.00;99.90
37786;DHT22;23625;48.784;9.336;2023-01-30T11:13:21;4.00;99.90
37786;DHT22;23625;48.784;9.336;2023-01-30T11:15:53;3.90;99.90
37786;DHT22;23625;48.784;9.336;2023-01-30T11:18:21;3.90;99.90
37786;DHT22;23625;48.784;9.336;2023-01-30T11:23:48;3.90;99.90
37786;DHT22;23625;48.784;9.336;2023-01-30T11:26:28;3.90;99.90
37786;DHT22;23625;48.784;9.336;2023-01-30T11:28:57;4.00;99.90
37786;DHT22;23625;48.784;9.336;2023-01-30T11:31:27;4.00;99.90
37786;DHT22;23625;48.784;9.336;2023-01-30T11:34:23;4.00;99.90
37786;DHT22;23625;48.784;9.336;2023-01-30T11:36:50;4.00;99.90
37786;DHT22;23625;48.784;9.336;2023-01-30T11:44:46;3.90;99.90
37786;DHT22;23625;48.784;9.336;2023-01-30T11:47:30;3.80;99.90
37786;DHT22;23625;48.784;9.336;2023-01-30T11:49:57;3.70;99.90
37786;DHT22;23625;48.784;9.336;2023-01-30T11:52:29;3.40;99.90
37786;DHT22;23625;48.784;9.336;2023-01-30T11:54:59;3.30;99.90
37786;DHT22;23625;48.784;9.336;2023-01-30T11:57:30;3.20;99.90
37786;DHT22;23625;48.784;9.336;2023-01-30T12:00:03;3.00;99.90
37786;DHT22;23625;48.784;9.336;2023-01-30T12:02:32;2.90;99.90
37786;DHT22;23625;48.784;9.336;2023-01-30T12:05:02;2.80;99.90
37786;DHT22;23625;48.784;9.336;2023-01-30T12:07:33;2.80;99.90
37786;DHT22;23625;48.784;9.336;2023-01-30T12:10:00;2.80;99.90
37786;DHT22;23625;48.784;9.336;2023-01-30T12:12:48;2.80;99.90
37786;DHT22;23625;48.784;9.336;2023-01-30T12:25:26;2.90;99.90
37786;DHT22;23625;48.784;9.336;2023-01-30T12:27:55;2.80;99.90
37786;DHT22;23625;48.784;9.336;2023-01-30T12:30:34;2.80;99.90
37786;DHT22;23625;48.784;9.336;2023-01-30T12:33:03;2.90;99.90
37786;DHT22;23625;48.784;9.336;2023-01-30T12:49:24;2.70;99.90
37786;DHT22;23625;48.784;9.336;2023-01-30T12:52:20;2.70;99.90
37786;DHT22;23625;48.784;9.336;2023-01-30T13:11:26;2.30;99.90
37786;DHT22;23625;48.784;9.336;2023-01-30T13:14:14;2.20;99.90
37786;DHT22;23625;48.784;9.336;2023-01-30T13:17:24;2.20;99.90
37786;DHT22;23625;48.784;9.336;2023-01-30T13:22:37;2.20;99.90
37786;DHT22;23625;48.784;9.336;2023-01-30T13:27:45;2.20;99.90
37786;DHT22;23625;48.784;9.336;2023-01-30T13:30:15;2.20;99.90
37786;DHT22;23625;48.784;9.336;2023-01-30T13:35:30;2.20;99.90
37786;DHT22;23625;48.784;9.336;2023-01-30T13:37:56;2.20;99.90
37786;DHT22;23625;48.784;9.336;2023-01-30T13:40:29;2.30;99.90
37786;DHT22;23625;48.784;9.336;2023-01-30T13:43:03;2.30;99.90
37786;DHT22;23625;48.784;9.336;2023-01-30T13:45:34;2.40;99.90
37786;DHT22;23625;48.784;9.336;2023-01-30T13:48:08;2.40;99.90
37786;DHT22;23625;48.784;9.336;2023-01-30T13:53:34;2.40;99.90
37786;DHT22;23625;48.784;9.336;2023-01-30T13:59:17;2.60;99.90
37786;DHT22;23625;48.784;9.336;2023-01-30T14:07:31;2.60;99.90
37786;DHT22;23625;48.784;9.336;2023-01-30T14:12:39;2.70;99.90
37786;DHT22;23625;48.784;9.336;2023-01-30T14:15:08;2.60;99.90
37786;DHT22;23625;48.784;9.336;2023-01-30T14:20:29;2.60;99.90
37786;DHT22;23625;48.784;9.336;2023-01-30T14:23:01;2.70;99.90
37786;DHT22;23625;48.784;9.336;2023-01-30T14:33:34;2.80;99.90
37786;DHT22;23625;48.784;9.336;2023-01-30T14:38:26;2.90;99.90
37786;DHT22;23625;48.784;9.336;2023-01-30T14:45:58;2.90;99.90
37786;DHT22;23625;48.784;9.336;2023-01-30T14:49:11;2.90;99.90
37786;DHT22;23625;48.784;9.336;2023-01-30T14:57:03;2.90;99.90
37786;DHT22;23625;48.784;9.336;2023-01-30T14:59:39;2.90;99.90
37786;DHT22;23625;48.784;9.336;2023-01-30T15:04:43;2.90;99.90
37786;DHT22;23625;48.784;9.336;2023-01-30T15:07:37;3.30;99.90
37786;DHT22;23625;48.784;9.336;2023-01-30T15:21:41;3.80;99.90
37786;DHT22;23625;48.784;9.336;2023-01-30T15:30:12;4.10;99.90
37786;DHT22;23625;48.784;9.336;2023-01-30T15:32:31;4.10;99.90
37786;DHT22;23625;48.784;9.336;2023-01-30T15:37:34;4.20;99.90
37786;DHT22;23625;48.784;9.336;2023-01-30T15:45:32;4.10;99.90
37786;DHT22;23625;48.784;9.336;2023-01-30T15:50:32;4.20;99.90
37786;DHT22;23625;48.784;9.336;2023-01-30T15:52:58;4.20;99.90
37786;DHT22;23625;48.784;9.336;2023-01-30T15:55:32;4.10;99.90
37786;DHT22;23625;48.784;9.336;2023-01-30T15:58:04;4.10;99.90
37786;DHT22;23625;48.784;9.336;2023-01-30T16:00:35;3.90;99.90
37786;DHT22;23625;48.784;9.336;2023-01-30T16:03:03;4.00;99.90
37786;DHT22;23625;48.784;9.336;2023-01-30T16:05:30;4.00;99.90
37786;DHT22;23625;48.784;9.336;2023-01-30T16:07:57;3.90;99.90
37786;DHT22;23625;48.784;9.336;2023-01-30T16:10:28;4.00;99.90
37786;DHT22;23625;48.784;9.336;2023-01-30T16:12:56;3.90;99.90
37786;DHT22;23625;48.784;9.336;2023-01-30T16:18:21;3.80;99.90
37786;DHT22;23625;48.784;9.336;2023-01-30T16:20:57;3.80;99.90
37786;DHT22;23625;48.784;9.336;2023-01-30T16:23:30;3.80;99.90
37786;DHT22;23625;48.784;9.336;2023-01-30T16:25:58;3.80;99.90
37786;DHT22;23625;48.784;9.336;2023-01-30T16:28:25;3.80;99.90
37786;DHT22;23625;48.784;9.336;2023-01-30T16:31:06;3.80;99.90
37786;DHT22;23625;48.784;9.336;2023-01-30T16:33:33;3.70;99.90
37786;DHT22;23625;48.784;9.336;2023-01-30T16:36:03;3.70;99.90
37786;DHT22;23625;48.784;9.336;2023-01-30T16:40:59;3.80;99.90
37786;DHT22;23625;48.784;9.336;2023-01-30T16:43:26;3.80;99.90
37786;DHT22;23625;48.784;9.336;2023-01-30T16:53:31;3.80;99.90
37786;DHT22;23625;48.784;9.336;2023-01-30T16:55:59;3.70;99.90
37786;DHT22;23625;48.784;9.336;2023-01-30T16:58:29;3.90;99.90
37786;DHT22;23625;48.784;9.336;2023-01-30T17:01:00;3.90;99.90
37786;DHT22;23625;48.784;9.336;2023-01-30T17:03:29;3.90;99.90
37786;DHT22;23625;48.784;9.336;2023-01-30T17:05:58;4.00;99.90
37786;DHT22;23625;48.784;9.336;2023-01-30T17:14:24;4.00;99.90
37786;DHT22;23625;48.784;9.336;2023-01-30T17:17:03;4.00;99.90
37786;DHT22;23625;48.784;9.336;2023-01-30T17:19:32;4.00;99.90
37786;DHT22;23625;48.784;9.336;2023-01-30T17:21:59;4.00;99.90
37786;DHT22;23625;48.784;9.336;2023-01-30T17:24:26;3.90;99.90
37786;DHT22;23625;48.784;9.336;2023-01-30T17:27:00;3.90;99.90
37786;DHT22;23625;48.784;9.336;2023-01-30T17:29:28;3.90;99.90
37786;DHT22;23625;48.784;9.336;2023-01-30T17:31:55;4.00;99.90
37786;DHT22;23625;48.784;9.336;2023-01-30T17:34:21;4.10;99.90
37786;DHT22;23625;48.784;9.336;2023-01-30T17:36:51;3.90;99.90
37786;DHT22;23625;48.784;9.336;2023-01-30T17:39:19;3.80;99.90
37786;DHT22;23625;48.784;9.336;2023-01-30T17:41:46;3.70;99.90
37786;DHT22;23625;48.784;9.336;2023-01-30T17:44:12;3.80;99.90
37786;DHT22;23625;48.784;9.336;2023-01-30T17:49:14;3.70;99.90
37786;DHT22;23625;48.784;9.336;2023-01-30T17:51:40;3.70;99.90
37786;DHT22;23625;48.784;9.336;2023-01-30T17:54:06;3.80;99.90
37786;DHT22;23625;48.784;9.336;2023-01-30T17:56:33;3.80;99.90
37786;DHT22;23625;48.784;9.336;2023-01-30T17:59:02;3.60;99.90
37786;DHT22;23625;48.784;9.336;2023-01-30T18:01:28;3.60;99.90
37786;DHT22;23625;48.784;9.336;2023-01-30T18:03:54;3.60;99.90
37786;DHT22;23625;48.784;9.336;2023-01-30T18:06:19;3.50;99.90
37786;DHT22;23625;48.784;9.336;2023-01-30T18:08:45;3.60;99.90
37786;DHT22;23625;48.784;9.336;2023-01-30T18:11:10;3.50;99.90
37786;DHT22;23625;48.784;9.336;2023-01-30T18:13:39;3.60;99.90
37786;DHT22;23625;48.784;9.336;2023-01-30T18:16:05;3.60;99.90
37786;DHT22;23625;48.784;9.336;2023-01-30T18:18:31;3.70;99.90
37786;DHT22;23625;48.784;9.336;2023-01-30T18:20:57;3.70;99.90
37786;DHT22;23625;48.784;9.336;2023-01-30T18:23:22;3.60;99.90
37786;DHT22;23625;48.784;9.336;2023-01-30T18:25:48;3.60;99.90
37786;DHT22;23625;48.784;9.336;2023-01-30T18:28:13;3.50;99.90
37786;DHT22;23625;48.784;9.336;2023-01-30T18:30:39;3.50;99.90
37786;DHT22;23625;48.784;9.336;2023-01-30T18:33:05;3.50;99.90
37786;DHT22;23625;48.784;9.336;2023-01-30T18:35:30;3.50;99.90
37786;DHT22;23625;48.784;9.336;2023-01-30T18:37:56;3.40;99.90
37786;DHT22;23625;48.784;9.336;2023-01-30T18:40:22;3.40;99.90
37786;DHT22;23625;48.784;9.336;2023-01-30T18:42:48;3.40;99.90
37786;DHT22;23625;48.784;9.336;2023-01-30T18:45:13;3.50;99.90
37786;DHT22;23625;48.784;9.336;2023-01-30T18:47:39;3.50;99.90
37786;DHT22;23625;48.784;9.336;2023-01-30T18:50:05;3.50;99.90
37786;DHT22;23625;48.784;9.336;2023-01-30T18:52:31;3.50;99.90
37786;DHT22;23625;48.784;9.336;2023-01-30T18:54:56;3.50;99.90
37786;DHT22;23625;48.784;9.336;2023-01-30T18:57:22;3.50;99.90
37786;DHT22;23625;48.784;9.336;2023-01-30T18:59:47;3.50;99.90
37786;DHT22;23625;48.784;9.336;2023-01-30T19:02:13;3.50;99.90
37786;DHT22;23625;48.784;9.336;2023-01-30T19:04:39;3.60;99.90
37786;DHT22;23625;48.784;9.336;2023-01-30T19:07:05;3.60;99.90
37786;DHT22;23625;48.784;9.336;2023-01-30T19:09:31;3.60;99.90
37786;DHT22;23625;48.784;9.336;2023-01-30T19:11:56;3.60;99.90
37786;DHT22;23625;48.784;9.336;2023-01-30T19:14:41;3.70;99.90
37786;DHT22;23625;48.784;9.336;2023-01-30T19:17:06;3.70;99.90
37786;DHT22;23625;48.784;9.336;2023-01-30T19:19:32;3.70;99.90
37786;DHT22;23625;48.784;9.336;2023-01-30T19:21:58;3.70;99.90
37786;DHT22;23625;48.784;9.336;2023-01-30T19:24:23;3.80;99.90